sensor_id;sensor_type;location;lat;lon;timestamp;P1;durP1;ratioP1;P2;durP2;ratioP2
52798;SDS011;38667;42.872;74.622;2023-02-11T00:00:54;20.93;;;7.63;;
52798;SDS011;38667;42.872;74.622;2023-02-11T00:03:20;18.13;;;7.40;;
52798;SDS011;38667;42.872;74.622;2023-02-11T00:05:55;20.40;;;6.83;;
52798;SDS011;38667;42.872;74.622;2023-02-11T00:08:24;19.37;;;7.13;;
52798;SDS011;38667;42.872;74.622;2023-02-11T00:10:50;20.13;;;7.47;;
52798;SDS011;38667;42.872;74.622;2023-02-11T00:13:17;14.23;;;6.17;;
52798;SDS011;38667;42.872;74.622;2023-02-11T00:15:43;15.37;;;7.17;;
52798;SDS011;38667;42.872;74.622;2023-02-11T00:18:10;24.97;;;8.93;;
52798;SDS011;38667;42.872;74.622;2023-02-11T00:20:37;24.13;;;9.07;;
52798;SDS011;38667;42.872;74.622;2023-02-11T00:23:03;41.40;;;12.70;;
52798;SDS011;38667;42.872;74.622;2023-02-11T00:25:31;105.13;;;28.17;;
52798;SDS011;38667;42.872;74.622;2023-02-11T00:27:58;114.23;;;30.23;;
52798;SDS011;38667;42.872;74.622;2023-02-11T00:30:24;72.10;;;22.37;;
52798;SDS011;38667;42.872;74.622;2023-02-11T00:32:50;52.13;;;16.70;;
52798;SDS011;38667;42.872;74.622;2023-02-11T00:35:16;50.47;;;16.03;;
52798;SDS011;38667;42.872;74.622;2023-02-11T00:37:43;50.13;;;14.77;;
52798;SDS011;38667;42.872;74.622;2023-02-11T00:40:10;37.20;;;12.17;;
52798;SDS011;38667;42.872;74.622;2023-02-11T00:42:38;28.70;;;11.80;;
52798;SDS011;38667;42.872;74.622;2023-02-11T00:45:04;28.40;;;11.10;;
52798;SDS011;38667;42.872;74.622;2023-02-11T00:47:31;41.03;;;16.97;;
52798;SDS011;38667;42.872;74.622;2023-02-11T00:49:57;49.40;;;19.97;;
52798;SDS011;38667;42.872;74.622;2023-02-11T00:52:23;58.30;;;22.77;;
52798;SDS011;38667;42.872;74.622;2023-02-11T00:54:50;52.97;;;21.03;;
52798;SDS011;38667;42.872;74.622;2023-02-11T00:57:16;64.90;;;23.33;;
52798;SDS011;38667;42.872;74.622;2023-02-11T00:59:44;47.57;;;21.03;;
52798;SDS011;38667;42.872;74.622;2023-02-11T01:02:10;47.13;;;20.80;;
52798;SDS011;38667;42.872;74.622;2023-02-11T01:04:36;49.53;;;18.97;;
52798;SDS011;38667;42.872;74.622;2023-02-11T01:07:03;54.77;;;21.33;;
52798;SDS011;38667;42.872;74.622;2023-02-11T01:09:29;62.40;;;21.93;;
52798;SDS011;38667;42.872;74.622;2023-02-11T01:11:55;79.50;;;24.17;;
52798;SDS011;38667;42.872;74.622;2023-02-11T01:14:22;77.73;;;25.23;;
52798;SDS011;38667;42.872;74.622;2023-02-11T01:16:49;72.60;;;23.73;;
52798;SDS011;38667;42.872;74.622;2023-02-11T01:19:16;81.23;;;27.73;;
52798;SDS011;38667;42.872;74.622;2023-02-11T01:21:42;85.17;;;31.93;;
52798;SDS011;38667;42.872;74.622;2023-02-11T01:24:08;92.73;;;35.53;;
52798;SDS011;38667;42.872;74.622;2023-02-11T01:26:35;97.90;;;32.23;;
52798;SDS011;38667;42.872;74.622;2023-02-11T01:29:01;97.20;;;33.37;;
52798;SDS011;38667;42.872;74.622;2023-02-11T01:31:29;95.73;;;32.07;;
52798;SDS011;38667;42.872;74.622;2023-02-11T01:33:57;58.87;;;23.37;;
52798;SDS011;38667;42.872;74.622;2023-02-11T01:36:24;54.80;;;20.60;;
52798;SDS011;38667;42.872;74.622;2023-02-11T01:38:50;56.20;;;22.70;;
52798;SDS011;38667;42.872;74.622;2023-02-11T01:41:16;70.00;;;26.50;;
52798;SDS011;38667;42.872;74.622;2023-02-11T01:43:44;92.60;;;32.20;;
52798;SDS011;38667;42.872;74.622;2023-02-11T01:46:13;90.80;;;33.50;;
52798;SDS011;38667;42.872;74.622;2023-02-11T01:48:49;84.10;;;32.17;;
52798;SDS011;38667;42.872;74.622;2023-02-11T01:51:22;78.07;;;30.83;;
52798;SDS011;38667;42.872;74.622;2023-02-11T01:53:53;83.87;;;32.40;;
52798;SDS011;38667;42.872;74.622;2023-02-11T01:56:20;90.77;;;32.97;;
52798;SDS011;38667;42.872;74.622;2023-02-11T01:58:48;91.63;;;34.73;;
52798;SDS011;38667;42.872;74.622;2023-02-11T02:01:18;99.03;;;34.67;;
52798;SDS011;38667;42.872;74.622;2023-02-11T02:03:48;82.40;;;35.73;;
52798;SDS011;38667;42.872;74.622;2023-02-11T02:06:18;121.40;;;41.30;;
52798;SDS011;38667;42.872;74.622;2023-02-11T02:08:51;103.90;;;38.47;;
52798;SDS011;38667;42.872;74.622;2023-02-11T02:11:21;92.63;;;36.63;;
52798;SDS011;38667;42.872;74.622;2023-02-11T02:13:47;80.10;;;31.67;;
52798;SDS011;38667;42.872;74.622;2023-02-11T02:16:14;86.47;;;32.40;;
52798;SDS011;38667;42.872;74.622;2023-02-11T02:18:45;72.03;;;31.50;;
52798;SDS011;38667;42.872;74.622;2023-02-11T02:21:28;79.93;;;32.40;;
52798;SDS011;38667;42.872;74.622;2023-02-11T02:24:30;93.13;;;34.17;;
52798;SDS011;38667;42.872;74.622;2023-02-11T02:27:28;70.03;;;29.70;;
52798;SDS011;38667;42.872;74.622;2023-02-11T02:30:14;85.27;;;32.40;;
52798;SDS011;38667;42.872;74.622;2023-02-11T02:33:11;79.87;;;32.73;;
52798;SDS011;38667;42.872;74.622;2023-02-11T02:35:47;120.00;;;44.47;;
52798;SDS011;38667;42.872;74.622;2023-02-11T02:38:22;113.07;;;41.70;;
52798;SDS011;38667;42.872;74.622;2023-02-11T02:40:53;87.20;;;33.97;;
52798;SDS011;38667;42.872;74.622;2023-02-11T02:43:24;82.60;;;36.90;;
52798;SDS011;38667;42.872;74.622;2023-02-11T02:45:51;82.20;;;33.27;;
52798;SDS011;38667;42.872;74.622;2023-02-11T02:48:24;77.33;;;32.13;;
52798;SDS011;38667;42.872;74.622;2023-02-11T02:50:52;102.30;;;36.60;;
52798;SDS011;38667;42.872;74.622;2023-02-11T02:53:42;150.07;;;49.10;;
52798;SDS011;38667;42.872;74.622;2023-02-11T02:56:17;196.50;;;61.27;;
52798;SDS011;38667;42.872;74.622;2023-02-11T02:59:00;200.10;;;58.20;;
52798;SDS011;38667;42.872;74.622;2023-02-11T03:01:53;198.73;;;61.50;;
52798;SDS011;38667;42.872;74.622;2023-02-11T03:04:30;268.53;;;82.87;;
52798;SDS011;38667;42.872;74.622;2023-02-11T03:07:02;145.03;;;44.17;;
52798;SDS011;38667;42.872;74.622;2023-02-11T03:09:38;115.87;;;37.53;;
52798;SDS011;38667;42.872;74.622;2023-02-11T03:12:09;214.43;;;63.87;;
52798;SDS011;38667;42.872;74.622;2023-02-11T03:14:37;159.93;;;50.60;;
52798;SDS011;38667;42.872;74.622;2023-02-11T03:17:04;134.53;;;46.43;;
52798;SDS011;38667;42.872;74.622;2023-02-11T03:19:34;141.73;;;50.43;;
52798;SDS011;38667;42.872;74.622;2023-02-11T03:22:04;112.03;;;45.40;;
52798;SDS011;38667;42.872;74.622;2023-02-11T03:24:34;109.57;;;44.30;;
52798;SDS011;38667;42.872;74.622;2023-02-11T03:27:04;96.50;;;39.03;;
52798;SDS011;38667;42.872;74.622;2023-02-11T03:29:35;91.80;;;38.37;;
52798;SDS011;38667;42.872;74.622;2023-02-11T03:32:08;54.67;;;24.43;;
52798;SDS011;38667;42.872;74.622;2023-02-11T03:34:43;44.37;;;21.03;;
52798;SDS011;38667;42.872;74.622;2023-02-11T03:37:12;35.37;;;15.10;;
52798;SDS011;38667;42.872;74.622;2023-02-11T03:39:43;23.13;;;11.80;;
52798;SDS011;38667;42.872;74.622;2023-02-11T03:42:13;27.17;;;11.63;;
52798;SDS011;38667;42.872;74.622;2023-02-11T03:44:42;21.53;;;10.00;;
52798;SDS011;38667;42.872;74.622;2023-02-11T03:47:13;25.67;;;11.73;;
52798;SDS011;38667;42.872;74.622;2023-02-11T03:49:43;22.70;;;10.93;;
52798;SDS011;38667;42.872;74.622;2023-02-11T03:52:14;26.00;;;11.43;;
52798;SDS011;38667;42.872;74.622;2023-02-11T03:54:42;25.17;;;11.33;;
52798;SDS011;38667;42.872;74.622;2023-02-11T03:57:11;21.90;;;9.47;;
52798;SDS011;38667;42.872;74.622;2023-02-11T03:59:53;26.17;;;10.50;;
52798;SDS011;38667;42.872;74.622;2023-02-11T04:02:21;27.63;;;10.40;;
52798;SDS011;38667;42.872;74.622;2023-02-11T04:04:51;20.73;;;9.77;;
52798;SDS011;38667;42.872;74.622;2023-02-11T04:07:17;19.60;;;9.57;;
52798;SDS011;38667;42.872;74.622;2023-02-11T04:09:43;23.87;;;9.63;;
52798;SDS011;38667;42.872;74.622;2023-02-11T04:12:09;18.80;;;8.03;;
52798;SDS011;38667;42.872;74.622;2023-02-11T04:14:36;33.20;;;8.73;;
52798;SDS011;38667;42.872;74.622;2023-02-11T04:17:02;32.00;;;11.83;;
52798;SDS011;38667;42.872;74.622;2023-02-11T04:19:29;27.07;;;10.40;;
52798;SDS011;38667;42.872;74.622;2023-02-11T04:21:56;25.70;;;10.07;;
52798;SDS011;38667;42.872;74.622;2023-02-11T04:24:23;36.23;;;11.30;;
52798;SDS011;38667;42.872;74.622;2023-02-11T04:26:49;34.20;;;10.80;;
52798;SDS011;38667;42.872;74.622;2023-02-11T04:29:16;18.83;;;7.33;;
52798;SDS011;38667;42.872;74.622;2023-02-11T04:31:42;18.67;;;7.90;;
52798;SDS011;38667;42.872;74.622;2023-02-11T04:34:08;19.40;;;7.40;;
52798;SDS011;38667;42.872;74.622;2023-02-11T04:36:35;13.37;;;6.73;;
52798;SDS011;38667;42.872;74.622;2023-02-11T04:39:03;19.03;;;8.13;;
52798;SDS011;38667;42.872;74.622;2023-02-11T04:41:29;18.47;;;9.27;;
52798;SDS011;38667;42.872;74.622;2023-02-11T04:43:56;34.97;;;13.23;;
52798;SDS011;38667;42.872;74.622;2023-02-11T04:46:22;22.37;;;9.67;;
52798;SDS011;38667;42.872;74.622;2023-02-11T04:48:48;30.27;;;12.70;;
52798;SDS011;38667;42.872;74.622;2023-02-11T04:51:15;23.90;;;10.03;;
52798;SDS011;38667;42.872;74.622;2023-02-11T04:53:41;28.43;;;11.83;;
52798;SDS011;38667;42.872;74.622;2023-02-11T04:56:09;49.87;;;17.33;;
52798;SDS011;38667;42.872;74.622;2023-02-11T04:58:35;25.17;;;11.77;;
52798;SDS011;38667;42.872;74.622;2023-02-11T05:01:05;34.87;;;15.47;;
52798;SDS011;38667;42.872;74.622;2023-02-11T05:03:31;22.77;;;10.07;;
52798;SDS011;38667;42.872;74.622;2023-02-11T05:05:58;25.57;;;12.47;;
52798;SDS011;38667;42.872;74.622;2023-02-11T05:08:24;23.53;;;11.67;;
52798;SDS011;38667;42.872;74.622;2023-02-11T05:10:50;21.20;;;11.13;;
52798;SDS011;38667;42.872;74.622;2023-02-11T05:13:18;19.23;;;8.43;;
52798;SDS011;38667;42.872;74.622;2023-02-11T05:15:44;23.87;;;10.27;;
52798;SDS011;38667;42.872;74.622;2023-02-11T05:18:11;21.87;;;9.50;;
52798;SDS011;38667;42.872;74.622;2023-02-11T05:20:37;18.07;;;8.83;;
52798;SDS011;38667;42.872;74.622;2023-02-11T05:23:03;20.77;;;10.77;;
52798;SDS011;38667;42.872;74.622;2023-02-11T05:25:30;25.93;;;9.00;;
52798;SDS011;38667;42.872;74.622;2023-02-11T05:27:56;26.63;;;11.60;;
52798;SDS011;38667;42.872;74.622;2023-02-11T05:30:24;42.50;;;17.73;;
52798;SDS011;38667;42.872;74.622;2023-02-11T05:32:50;29.50;;;12.73;;
52798;SDS011;38667;42.872;74.622;2023-02-11T05:35:17;23.10;;;10.57;;
52798;SDS011;38667;42.872;74.622;2023-02-11T05:37:43;22.30;;;10.00;;
52798;SDS011;38667;42.872;74.622;2023-02-11T05:40:10;17.90;;;8.83;;
52798;SDS011;38667;42.872;74.622;2023-02-11T05:42:36;17.50;;;8.27;;
52798;SDS011;38667;42.872;74.622;2023-02-11T05:45:03;25.63;;;11.90;;
52798;SDS011;38667;42.872;74.622;2023-02-11T05:47:31;20.87;;;9.30;;
52798;SDS011;38667;42.872;74.622;2023-02-11T05:49:57;21.87;;;10.20;;
52798;SDS011;38667;42.872;74.622;2023-02-11T05:52:23;23.60;;;10.30;;
52798;SDS011;38667;42.872;74.622;2023-02-11T05:54:51;23.87;;;10.10;;
52798;SDS011;38667;42.872;74.622;2023-02-11T05:57:17;20.83;;;10.17;;
52798;SDS011;38667;42.872;74.622;2023-02-11T05:59:43;16.97;;;8.10;;
52798;SDS011;38667;42.872;74.622;2023-02-11T06:02:10;20.97;;;10.33;;
52798;SDS011;38667;42.872;74.622;2023-02-11T06:04:39;26.33;;;11.53;;
52798;SDS011;38667;42.872;74.622;2023-02-11T06:07:05;21.07;;;8.37;;
52798;SDS011;38667;42.872;74.622;2023-02-11T06:09:31;21.97;;;10.80;;
52798;SDS011;38667;42.872;74.622;2023-02-11T06:11:58;20.90;;;8.13;;
52798;SDS011;38667;42.872;74.622;2023-02-11T06:14:24;20.73;;;7.43;;
52798;SDS011;38667;42.872;74.622;2023-02-11T06:16:50;35.03;;;15.73;;
52798;SDS011;38667;42.872;74.622;2023-02-11T06:19:17;24.87;;;11.40;;
52798;SDS011;38667;42.872;74.622;2023-02-11T06:21:44;17.77;;;8.53;;
52798;SDS011;38667;42.872;74.622;2023-02-11T06:24:11;26.00;;;11.97;;
52798;SDS011;38667;42.872;74.622;2023-02-11T06:26:37;22.80;;;10.43;;
52798;SDS011;38667;42.872;74.622;2023-02-11T06:29:03;22.47;;;11.33;;
52798;SDS011;38667;42.872;74.622;2023-02-11T06:31:30;22.33;;;9.17;;
52798;SDS011;38667;42.872;74.622;2023-02-11T06:33:56;21.52;;;10.50;;
52798;SDS011;38667;42.872;74.622;2023-02-11T06:36:22;18.50;;;10.00;;
52798;SDS011;38667;42.872;74.622;2023-02-11T06:38:50;40.65;;;20.13;;
52798;SDS011;38667;42.872;74.622;2023-02-11T06:41:17;39.92;;;19.13;;
52798;SDS011;38667;42.872;74.622;2023-02-11T06:43:44;44.05;;;22.90;;
52798;SDS011;38667;42.872;74.622;2023-02-11T06:46:11;35.70;;;17.77;;
52798;SDS011;38667;42.872;74.622;2023-02-11T06:48:37;35.63;;;17.93;;
52798;SDS011;38667;42.872;74.622;2023-02-11T06:51:04;36.10;;;17.20;;
52798;SDS011;38667;42.872;74.622;2023-02-11T06:53:34;28.05;;;14.85;;
52798;SDS011;38667;42.872;74.622;2023-02-11T06:56:03;36.25;;;20.38;;
52798;SDS011;38667;42.872;74.622;2023-02-11T06:58:30;28.17;;;15.00;;
52798;SDS011;38667;42.872;74.622;2023-02-11T07:00:57;28.17;;;15.27;;
52798;SDS011;38667;42.872;74.622;2023-02-11T07:03:23;22.30;;;12.83;;
52798;SDS011;38667;42.872;74.622;2023-02-11T07:05:50;27.43;;;14.20;;
52798;SDS011;38667;42.872;74.622;2023-02-11T07:08:16;24.97;;;12.80;;
52798;SDS011;38667;42.872;74.622;2023-02-11T07:10:42;26.90;;;12.73;;
52798;SDS011;38667;42.872;74.622;2023-02-11T07:13:10;26.37;;;13.20;;
52798;SDS011;38667;42.872;74.622;2023-02-11T07:15:37;26.73;;;13.57;;
52798;SDS011;38667;42.872;74.622;2023-02-11T07:18:03;32.63;;;16.10;;
52798;SDS011;38667;42.872;74.622;2023-02-11T07:20:29;34.23;;;16.17;;
52798;SDS011;38667;42.872;74.622;2023-02-11T07:22:56;33.40;;;15.93;;
52798;SDS011;38667;42.872;74.622;2023-02-11T07:25:22;33.00;;;14.83;;
52798;SDS011;38667;42.872;74.622;2023-02-11T07:27:48;29.33;;;14.03;;
52798;SDS011;38667;42.872;74.622;2023-02-11T07:30:16;29.67;;;13.10;;
52798;SDS011;38667;42.872;74.622;2023-02-11T07:32:42;27.13;;;11.67;;
52798;SDS011;38667;42.872;74.622;2023-02-11T07:35:09;24.30;;;12.07;;
52798;SDS011;38667;42.872;74.622;2023-02-11T07:37:35;34.93;;;17.90;;
52798;SDS011;38667;42.872;74.622;2023-02-11T07:40:01;38.27;;;18.73;;
52798;SDS011;38667;42.872;74.622;2023-02-11T07:42:28;23.20;;;11.40;;
52798;SDS011;38667;42.872;74.622;2023-02-11T07:44:54;11.20;;;5.37;;
52798;SDS011;38667;42.872;74.622;2023-02-11T07:47:22;45.70;;;21.33;;
52798;SDS011;38667;42.872;74.622;2023-02-11T07:49:48;23.07;;;11.53;;
52798;SDS011;38667;42.872;74.622;2023-02-11T07:52:15;25.53;;;12.23;;
52798;SDS011;38667;42.872;74.622;2023-02-11T07:54:41;29.80;;;12.70;;
52798;SDS011;38667;42.872;74.622;2023-02-11T07:57:07;18.27;;;8.43;;
52798;SDS011;38667;42.872;74.622;2023-02-11T07:59:34;13.27;;;6.00;;
52798;SDS011;38667;42.872;74.622;2023-02-11T08:02:00;24.97;;;10.17;;
52798;SDS011;38667;42.872;74.622;2023-02-11T08:04:28;27.60;;;9.50;;
52798;SDS011;38667;42.872;74.622;2023-02-11T08:06:54;12.60;;;6.90;;
52798;SDS011;38667;42.872;74.622;2023-02-11T08:09:21;26.13;;;8.37;;
52798;SDS011;38667;42.872;74.622;2023-02-11T08:11:47;28.55;;;11.38;;
52798;SDS011;38667;42.872;74.622;2023-02-11T08:14:13;16.10;;;9.52;;
52798;SDS011;38667;42.872;74.622;2023-02-11T08:16:40;15.45;;;8.57;;
52798;SDS011;38667;42.872;74.622;2023-02-11T08:19:07;34.97;;;17.73;;
52798;SDS011;38667;42.872;74.622;2023-02-11T08:21:38;37.60;;;18.63;;
52798;SDS011;38667;42.872;74.622;2023-02-11T08:24:05;33.25;;;16.27;;
52798;SDS011;38667;42.872;74.622;2023-02-11T08:26:32;35.83;;;17.20;;
52798;SDS011;38667;42.872;74.622;2023-02-11T08:29:00;35.88;;;17.77;;
52798;SDS011;38667;42.872;74.622;2023-02-11T08:31:31;36.42;;;18.58;;
52798;SDS011;38667;42.872;74.622;2023-02-11T08:33:58;28.63;;;15.77;;
52798;SDS011;38667;42.872;74.622;2023-02-11T08:36:26;37.28;;;15.15;;
52798;SDS011;38667;42.872;74.622;2023-02-11T08:38:56;37.10;;;17.52;;
52798;SDS011;38667;42.872;74.622;2023-02-11T08:41:23;31.92;;;15.55;;
52798;SDS011;38667;42.872;74.622;2023-02-11T08:43:50;30.30;;;15.33;;
52798;SDS011;38667;42.872;74.622;2023-02-11T08:46:17;27.93;;;14.83;;
52798;SDS011;38667;42.872;74.622;2023-02-11T08:48:44;31.53;;;12.73;;
52798;SDS011;38667;42.872;74.622;2023-02-11T08:51:13;24.23;;;12.38;;
52798;SDS011;38667;42.872;74.622;2023-02-11T08:53:41;22.30;;;10.93;;
52798;SDS011;38667;42.872;74.622;2023-02-11T08:56:08;26.43;;;10.40;;
52798;SDS011;38667;42.872;74.622;2023-02-11T08:58:35;21.10;;;11.33;;
52798;SDS011;38667;42.872;74.622;2023-02-11T09:01:07;20.43;;;9.93;;
52798;SDS011;38667;42.872;74.622;2023-02-11T09:03:34;22.57;;;10.13;;
52798;SDS011;38667;42.872;74.622;2023-02-11T09:06:02;16.13;;;8.90;;
52798;SDS011;38667;42.872;74.622;2023-02-11T09:08:29;16.67;;;8.93;;
52798;SDS011;38667;42.872;74.622;2023-02-11T09:10:57;22.83;;;8.73;;
52798;SDS011;38667;42.872;74.622;2023-02-11T09:13:25;17.93;;;9.17;;
52798;SDS011;38667;42.872;74.622;2023-02-11T09:15:51;25.03;;;11.20;;
52798;SDS011;38667;42.872;74.622;2023-02-11T09:18:18;20.80;;;9.70;;
52798;SDS011;38667;42.872;74.622;2023-02-11T09:20:44;23.20;;;10.87;;
52798;SDS011;38667;42.872;74.622;2023-02-11T09:23:10;28.67;;;12.00;;
52798;SDS011;38667;42.872;74.622;2023-02-11T09:25:38;26.10;;;11.70;;
52798;SDS011;38667;42.872;74.622;2023-02-11T09:28:04;25.80;;;11.90;;
52798;SDS011;38667;42.872;74.622;2023-02-11T09:30:32;34.67;;;13.83;;
52798;SDS011;38667;42.872;74.622;2023-02-11T09:33:00;26.37;;;12.57;;
52798;SDS011;38667;42.872;74.622;2023-02-11T09:35:26;28.07;;;13.30;;
52798;SDS011;38667;42.872;74.622;2023-02-11T09:37:53;26.97;;;14.17;;
52798;SDS011;38667;42.872;74.622;2023-02-11T09:40:19;27.87;;;13.87;;
52798;SDS011;38667;42.872;74.622;2023-02-11T09:42:47;32.47;;;15.60;;
52798;SDS011;38667;42.872;74.622;2023-02-11T09:45:16;35.67;;;15.33;;
52798;SDS011;38667;42.872;74.622;2023-02-11T09:47:47;35.17;;;15.93;;
52798;SDS011;38667;42.872;74.622;2023-02-11T09:50:17;33.60;;;16.27;;
52798;SDS011;38667;42.872;74.622;2023-02-11T09:52:52;36.47;;;17.00;;
52798;SDS011;38667;42.872;74.622;2023-02-11T09:55:23;42.37;;;16.47;;
52798;SDS011;38667;42.872;74.622;2023-02-11T09:57:52;35.53;;;17.23;;
52798;SDS011;38667;42.872;74.622;2023-02-11T10:00:21;35.40;;;17.03;;
52798;SDS011;38667;42.872;74.622;2023-02-11T10:03:06;39.87;;;17.00;;
52798;SDS011;38667;42.872;74.622;2023-02-11T10:05:55;34.83;;;15.03;;
52798;SDS011;38667;42.872;74.622;2023-02-11T10:08:33;35.97;;;15.63;;
52798;SDS011;38667;42.872;74.622;2023-02-11T10:11:07;38.03;;;15.63;;
52798;SDS011;38667;42.872;74.622;2023-02-11T10:13:43;34.23;;;16.27;;
52798;SDS011;38667;42.872;74.622;2023-02-11T10:16:19;37.80;;;17.00;;
52798;SDS011;38667;42.872;74.622;2023-02-11T10:19:12;38.73;;;15.50;;
52798;SDS011;38667;42.872;74.622;2023-02-11T10:22:01;37.07;;;15.50;;
52798;SDS011;38667;42.872;74.622;2023-02-11T10:24:34;30.17;;;14.17;;
52798;SDS011;38667;42.872;74.622;2023-02-11T10:27:01;39.07;;;15.90;;
52798;SDS011;38667;42.872;74.622;2023-02-11T10:29:39;36.77;;;15.97;;
52798;SDS011;38667;42.872;74.622;2023-02-11T10:32:19;32.87;;;15.90;;
52798;SDS011;38667;42.872;74.622;2023-02-11T10:34:57;37.00;;;16.50;;
52798;SDS011;38667;42.872;74.622;2023-02-11T10:37:26;40.87;;;16.40;;
52798;SDS011;38667;42.872;74.622;2023-02-11T10:39:53;34.47;;;16.47;;
52798;SDS011;38667;42.872;74.622;2023-02-11T10:42:19;37.70;;;16.47;;
52798;SDS011;38667;42.872;74.622;2023-02-11T10:44:53;39.13;;;16.37;;
52798;SDS011;38667;42.872;74.622;2023-02-11T10:47:24;30.97;;;15.60;;
52798;SDS011;38667;42.872;74.622;2023-02-11T10:49:52;32.47;;;15.03;;
52798;SDS011;38667;42.872;74.622;2023-02-11T10:52:21;37.30;;;15.10;;
52798;SDS011;38667;42.872;74.622;2023-02-11T10:54:56;36.60;;;16.07;;
52798;SDS011;38667;42.872;74.622;2023-02-11T10:57:25;36.47;;;15.23;;
52798;SDS011;38667;42.872;74.622;2023-02-11T10:59:56;37.80;;;16.27;;
52798;SDS011;38667;42.872;74.622;2023-02-11T11:02:26;36.80;;;16.83;;
52798;SDS011;38667;42.872;74.622;2023-02-11T11:04:56;40.30;;;16.53;;
52798;SDS011;38667;42.872;74.622;2023-02-11T11:07:25;43.37;;;17.63;;
52798;SDS011;38667;42.872;74.622;2023-02-11T11:09:54;39.30;;;16.27;;
52798;SDS011;38667;42.872;74.622;2023-02-11T11:12:25;38.40;;;17.37;;
52798;SDS011;38667;42.872;74.622;2023-02-11T11:14:54;35.70;;;15.63;;
52798;SDS011;38667;42.872;74.622;2023-02-11T11:17:21;36.97;;;17.47;;
52798;SDS011;38667;42.872;74.622;2023-02-11T11:19:48;36.27;;;16.33;;
52798;SDS011;38667;42.872;74.622;2023-02-11T11:22:20;34.23;;;15.73;;
52798;SDS011;38667;42.872;74.622;2023-02-11T11:24:47;31.23;;;15.17;;
52798;SDS011;38667;42.872;74.622;2023-02-11T11:27:16;42.30;;;16.93;;
52798;SDS011;38667;42.872;74.622;2023-02-11T11:29:45;51.60;;;18.10;;
52798;SDS011;38667;42.872;74.622;2023-02-11T11:32:15;37.73;;;17.80;;
52798;SDS011;38667;42.872;74.622;2023-02-11T11:34:48;41.77;;;18.60;;
52798;SDS011;38667;42.872;74.622;2023-02-11T11:37:21;42.87;;;18.03;;
52798;SDS011;38667;42.872;74.622;2023-02-11T11:39:52;45.90;;;18.30;;
52798;SDS011;38667;42.872;74.622;2023-02-11T11:42:23;50.20;;;21.13;;
52798;SDS011;38667;42.872;74.622;2023-02-11T11:44:55;49.30;;;21.20;;
52798;SDS011;38667;42.872;74.622;2023-02-11T11:47:26;49.33;;;20.73;;
52798;SDS011;38667;42.872;74.622;2023-02-11T11:52:53;49.67;;;23.20;;
52798;SDS011;38667;42.872;74.622;2023-02-11T11:55:25;54.83;;;23.17;;
52798;SDS011;38667;42.872;74.622;2023-02-11T11:57:55;50.10;;;24.20;;
52798;SDS011;38667;42.872;74.622;2023-02-11T12:00:26;57.20;;;23.20;;
52798;SDS011;38667;42.872;74.622;2023-02-11T12:06:10;49.23;;;21.00;;
52798;SDS011;38667;42.872;74.622;2023-02-11T12:08:50;45.63;;;18.87;;
52798;SDS011;38667;42.872;74.622;2023-02-11T12:11:26;55.83;;;20.93;;
52798;SDS011;38667;42.872;74.622;2023-02-11T12:14:03;48.33;;;21.27;;
52798;SDS011;38667;42.872;74.622;2023-02-11T12:16:39;51.03;;;20.60;;
52798;SDS011;38667;42.872;74.622;2023-02-11T12:22:11;58.67;;;25.20;;
52798;SDS011;38667;42.872;74.622;2023-02-11T12:24:55;58.60;;;25.13;;
52798;SDS011;38667;42.872;74.622;2023-02-11T12:27:41;64.33;;;26.00;;
52798;SDS011;38667;42.872;74.622;2023-02-11T12:30:16;71.40;;;26.67;;
52798;SDS011;38667;42.872;74.622;2023-02-11T12:32:52;66.47;;;27.80;;
52798;SDS011;38667;42.872;74.622;2023-02-11T12:35:27;88.50;;;29.07;;
52798;SDS011;38667;42.872;74.622;2023-02-11T12:38:09;72.83;;;32.53;;
52798;SDS011;38667;42.872;74.622;2023-02-11T12:40:45;82.47;;;34.90;;
52798;SDS011;38667;42.872;74.622;2023-02-11T12:43:22;89.60;;;35.97;;
52798;SDS011;38667;42.872;74.622;2023-02-11T12:45:57;86.17;;;37.17;;
52798;SDS011;38667;42.872;74.622;2023-02-11T12:48:34;87.47;;;37.23;;
52798;SDS011;38667;42.872;74.622;2023-02-11T12:51:23;87.83;;;36.27;;
52798;SDS011;38667;42.872;74.622;2023-02-11T12:54:10;88.23;;;37.70;;
52798;SDS011;38667;42.872;74.622;2023-02-11T12:56:47;80.87;;;34.83;;
52798;SDS011;38667;42.872;74.622;2023-02-11T12:59:21;85.63;;;35.13;;
52798;SDS011;38667;42.872;74.622;2023-02-11T13:02:16;69.67;;;31.93;;
52798;SDS011;38667;42.872;74.622;2023-02-11T13:04:46;73.67;;;32.90;;
52798;SDS011;38667;42.872;74.622;2023-02-11T13:07:18;91.17;;;39.17;;
52798;SDS011;38667;42.872;74.622;2023-02-11T13:09:50;95.27;;;41.97;;
52798;SDS011;38667;42.872;74.622;2023-02-11T13:12:22;143.73;;;66.43;;
52798;SDS011;38667;42.872;74.622;2023-02-11T13:14:49;121.13;;;52.30;;
52798;SDS011;38667;42.872;74.622;2023-02-11T13:17:20;143.37;;;62.03;;
52798;SDS011;38667;42.872;74.622;2023-02-11T13:19:57;168.07;;;71.43;;
52798;SDS011;38667;42.872;74.622;2023-02-11T13:22:26;218.83;;;85.77;;
52798;SDS011;38667;42.872;74.622;2023-02-11T13:24:57;189.53;;;77.83;;
52798;SDS011;38667;42.872;74.622;2023-02-11T13:27:31;248.83;;;110.73;;
52798;SDS011;38667;42.872;74.622;2023-02-11T13:30:22;202.87;;;87.27;;
52798;SDS011;38667;42.872;74.622;2023-02-11T13:33:01;156.40;;;67.70;;
52798;SDS011;38667;42.872;74.622;2023-02-11T13:36:09;149.93;;;64.03;;
52798;SDS011;38667;42.872;74.622;2023-02-11T13:38:40;184.60;;;71.00;;
52798;SDS011;38667;42.872;74.622;2023-02-11T13:41:18;190.27;;;81.80;;
52798;SDS011;38667;42.872;74.622;2023-02-11T13:43:57;181.20;;;70.87;;
52798;SDS011;38667;42.872;74.622;2023-02-11T13:46:25;169.93;;;69.40;;
52798;SDS011;38667;42.872;74.622;2023-02-11T13:48:53;191.53;;;72.83;;
52798;SDS011;38667;42.872;74.622;2023-02-11T13:51:32;151.33;;;63.63;;
52798;SDS011;38667;42.872;74.622;2023-02-11T13:54:00;157.80;;;64.20;;
52798;SDS011;38667;42.872;74.622;2023-02-11T13:56:28;170.60;;;71.07;;
52798;SDS011;38667;42.872;74.622;2023-02-11T13:58:58;179.93;;;74.50;;
52798;SDS011;38667;42.872;74.622;2023-02-11T14:01:38;170.40;;;70.70;;
52798;SDS011;38667;42.872;74.622;2023-02-11T14:04:18;183.20;;;74.07;;
52798;SDS011;38667;42.872;74.622;2023-02-11T14:09:41;133.10;;;52.37;;
52798;SDS011;38667;42.872;74.622;2023-02-11T14:17:46;110.30;;;47.27;;
52798;SDS011;38667;42.872;74.622;2023-02-11T14:22:58;140.60;;;54.33;;
52798;SDS011;38667;42.872;74.622;2023-02-11T14:25:25;152.63;;;58.67;;
52798;SDS011;38667;42.872;74.622;2023-02-11T14:27:52;160.37;;;58.83;;
52798;SDS011;38667;42.872;74.622;2023-02-11T14:30:36;147.97;;;52.93;;
52798;SDS011;38667;42.872;74.622;2023-02-11T14:33:19;113.87;;;48.43;;
52798;SDS011;38667;42.872;74.622;2023-02-11T14:36:07;107.80;;;44.57;;
52798;SDS011;38667;42.872;74.622;2023-02-11T14:38:45;127.97;;;50.50;;
52798;SDS011;38667;42.872;74.622;2023-02-11T14:41:21;136.83;;;53.80;;
52798;SDS011;38667;42.872;74.622;2023-02-11T14:43:50;110.87;;;49.97;;
52798;SDS011;38667;42.872;74.622;2023-02-11T14:46:20;104.37;;;47.13;;